createdAt,value
2023-02-07T00:01:17.584Z,2.90
2023-02-07T00:03:44.755Z,1.90
2023-02-07T00:06:13.611Z,1.95
2023-02-07T00:08:40.905Z,2.30
2023-02-07T00:11:12.679Z,2.17
2023-02-07T00:13:39.704Z,1.70
2023-02-07T00:16:07.094Z,1.83
2023-02-07T00:18:34.267Z,2.10
2023-02-07T00:21:01.976Z,1.80
2023-02-07T00:23:29.200Z,1.63
2023-02-07T00:25:56.264Z,1.80
2023-02-07T00:28:23.405Z,2.00
2023-02-07T00:30:50.707Z,2.30
2023-02-07T00:33:17.912Z,1.90
2023-02-07T00:35:45.074Z,2.00
2023-02-07T00:38:12.117Z,1.70
2023-02-07T00:40:39.160Z,1.65
2023-02-07T00:43:06.310Z,1.90
2023-02-07T00:45:33.369Z,2.00
2023-02-07T00:48:00.486Z,1.90
2023-02-07T00:50:27.711Z,1.90
2023-02-07T00:52:54.763Z,2.33
2023-02-07T00:55:22.356Z,2.45
2023-02-07T00:57:49.450Z,2.70
2023-02-07T01:00:16.641Z,1.90
2023-02-07T01:02:43.726Z,1.85
2023-02-07T01:05:10.757Z,1.95
2023-02-07T01:07:37.805Z,1.98
2023-02-07T01:10:04.971Z,1.80
2023-02-07T01:12:32.048Z,2.35
2023-02-07T01:14:59.611Z,2.03
2023-02-07T01:17:26.653Z,2.17
2023-02-07T01:19:58.224Z,2.30
2023-02-07T01:22:25.768Z,2.00
2023-02-07T01:24:55.947Z,2.22
2023-02-07T01:27:23.564Z,2.28
2023-02-07T01:29:50.845Z,2.33
2023-02-07T01:32:18.023Z,2.20
2023-02-07T01:34:45.139Z,2.25
2023-02-07T01:37:12.223Z,2.80
2023-02-07T01:39:39.241Z,2.55
2023-02-07T01:42:06.305Z,2.65
2023-02-07T01:44:33.371Z,2.80
2023-02-07T01:47:00.435Z,2.85
2023-02-07T01:49:30.408Z,2.53
2023-02-07T01:51:59.861Z,2.38
2023-02-07T01:54:31.897Z,2.67
2023-02-07T01:56:59.534Z,2.67
2023-02-07T01:59:26.581Z,2.78
2023-02-07T02:01:53.719Z,2.80
2023-02-07T02:04:21.260Z,2.58
2023-02-07T02:06:48.314Z,3.08
2023-02-07T02:09:16.286Z,2.80
2023-02-07T02:11:43.410Z,2.90
2023-02-07T02:14:17.913Z,3.10
2023-02-07T02:16:50.983Z,2.63
2023-02-07T02:19:36.744Z,3.38
2023-02-07T02:22:22.753Z,3.15
2023-02-07T02:25:16.347Z,3.60
2023-02-07T02:27:58.398Z,3.70
2023-02-07T02:30:31.355Z,3.88
2023-02-07T02:33:30.919Z,3.40
2023-02-07T02:36:01.813Z,3.70
2023-02-07T02:38:35.036Z,3.50
2023-02-07T02:41:06.624Z,3.63
2023-02-07T02:43:46.911Z,3.92
2023-02-07T02:46:28.444Z,4.13
2023-02-07T02:48:55.570Z,4.03
2023-02-07T02:51:22.649Z,4.60
2023-02-07T02:53:56.296Z,4.00
2023-02-07T02:56:42.209Z,4.18
2023-02-07T02:59:09.259Z,3.72
2023-02-07T03:01:39.238Z,3.97
2023-02-07T03:04:06.331Z,4.60
2023-02-07T03:06:39.509Z,4.90
2023-02-07T03:09:06.557Z,4.80
2023-02-07T03:11:37.657Z,4.68
2023-02-07T03:14:08.840Z,4.43
2023-02-07T03:16:38.943Z,4.13
2023-02-07T03:19:10.271Z,4.70
2023-02-07T03:21:40.338Z,4.15
2023-02-07T03:24:10.304Z,4.90
2023-02-07T03:26:37.333Z,4.65
2023-02-07T03:29:04.440Z,5.25
2023-02-07T03:31:31.625Z,5.47
2023-02-07T03:34:03.442Z,4.70
2023-02-07T03:36:49.344Z,4.40
2023-02-07T03:39:16.361Z,4.95
2023-02-07T03:41:44.973Z,5.20
2023-02-07T03:44:12.028Z,5.25
2023-02-07T03:46:39.245Z,5.07
2023-02-07T03:49:07.944Z,5.82
2023-02-07T03:51:35.789Z,6.18
2023-02-07T03:54:02.886Z,5.57
2023-02-07T03:56:29.924Z,6.20
2023-02-07T03:58:56.939Z,6.13
2023-02-07T04:01:23.996Z,6.43
2023-02-07T04:03:51.088Z,7.10
2023-02-07T04:06:18.566Z,6.18
2023-02-07T04:08:45.636Z,6.80
2023-02-07T04:11:12.706Z,7.28
2023-02-07T04:13:39.812Z,6.88
2023-02-07T04:16:07.104Z,7.60
2023-02-07T04:18:34.303Z,7.30
2023-02-07T04:21:04.293Z,7.28
2023-02-07T04:23:31.353Z,6.70
2023-02-07T04:25:58.445Z,6.85
2023-02-07T04:28:25.740Z,6.88
2023-02-07T04:30:52.825Z,7.57
2023-02-07T04:33:21.197Z,8.43
2023-02-07T04:35:54.716Z,10.07
2023-02-07T04:38:21.791Z,9.43
2023-02-07T04:40:48.875Z,9.32
2023-02-07T04:43:17.506Z,10.02
2023-02-07T04:45:46.367Z,10.95
2023-02-07T04:48:13.456Z,10.32
2023-02-07T04:50:40.514Z,11.00
2023-02-07T04:53:07.572Z,10.95
2023-02-07T04:55:35.878Z,11.57
2023-02-07T04:58:03.018Z,11.32
2023-02-07T05:00:30.160Z,11.70
2023-02-07T05:02:59.180Z,11.30
2023-02-07T05:05:27.436Z,11.35
2023-02-07T05:07:54.563Z,11.65
2023-02-07T05:10:21.605Z,12.23
2023-02-07T05:12:48.702Z,11.07
2023-02-07T05:15:15.905Z,10.98
2023-02-07T05:17:43.022Z,9.73
2023-02-07T05:20:10.389Z,9.77
2023-02-07T05:22:37.477Z,9.85
2023-02-07T05:25:04.624Z,11.23
2023-02-07T05:27:31.792Z,9.95
2023-02-07T05:29:59.396Z,9.15
2023-02-07T05:32:44.998Z,11.07
2023-02-07T05:35:12.075Z,11.88
2023-02-07T05:37:39.153Z,11.35
2023-02-07T05:40:06.355Z,12.20
2023-02-07T05:42:33.479Z,12.00
2023-02-07T05:45:00.559Z,12.50
2023-02-07T05:47:27.620Z,11.35
2023-02-07T05:49:54.733Z,11.63
2023-02-07T05:52:21.913Z,11.77
2023-02-07T05:54:49.050Z,12.40
2023-02-07T05:57:16.125Z,14.68
2023-02-07T05:59:43.190Z,13.95
2023-02-07T06:02:10.433Z,13.82
2023-02-07T06:04:37.639Z,14.48
2023-02-07T06:07:05.179Z,13.48
2023-02-07T06:09:32.425Z,14.38
2023-02-07T06:11:59.463Z,14.90
2023-02-07T06:14:26.591Z,14.48
2023-02-07T06:16:53.686Z,14.73
2023-02-07T06:19:20.768Z,15.80
2023-02-07T06:21:47.836Z,14.57
2023-02-07T06:24:15.713Z,15.13
2023-02-07T06:26:42.924Z,15.10
2023-02-07T06:29:09.931Z,14.95
2023-02-07T06:31:37.015Z,15.70
2023-02-07T06:34:04.080Z,15.93
2023-02-07T06:36:31.153Z,18.38
2023-02-07T06:38:58.490Z,17.50
2023-02-07T06:41:25.564Z,16.17
2023-02-07T06:43:52.649Z,16.13
2023-02-07T06:46:19.799Z,15.75
2023-02-07T06:48:46.845Z,16.88
2023-02-07T06:51:13.915Z,17.85
2023-02-07T06:53:41.025Z,15.82
2023-02-07T06:56:08.252Z,16.55
2023-02-07T06:58:35.336Z,15.65
2023-02-07T07:01:02.766Z,15.68
2023-02-07T07:03:29.876Z,16.77
2023-02-07T07:05:57.410Z,16.75
2023-02-07T07:08:24.800Z,18.30
2023-02-07T07:10:51.875Z,17.05
2023-02-07T07:13:19.111Z,17.55
2023-02-07T07:15:46.249Z,17.60
2023-02-07T07:18:13.700Z,15.98
2023-02-07T07:20:40.762Z,17.80
2023-02-07T07:23:07.853Z,18.83
2023-02-07T07:25:34.982Z,17.95
2023-02-07T07:28:02.154Z,17.98
2023-02-07T07:30:29.417Z,18.85
2023-02-07T07:32:56.577Z,20.00
2023-02-07T07:35:23.756Z,18.25
2023-02-07T07:37:50.771Z,19.35
2023-02-07T07:40:17.869Z,19.23
2023-02-07T07:42:44.963Z,18.98
2023-02-07T07:45:13.427Z,19.67
2023-02-07T07:47:40.550Z,19.23
2023-02-07T07:50:08.429Z,20.88
2023-02-07T07:52:35.533Z,18.58
2023-02-07T07:55:02.668Z,17.00
2023-02-07T07:57:29.812Z,16.67
2023-02-07T07:59:57.006Z,16.25
2023-02-07T08:02:24.375Z,16.10
2023-02-07T08:04:51.633Z,15.77
2023-02-07T08:07:18.742Z,16.38
2023-02-07T08:09:45.765Z,15.20
2023-02-07T08:12:12.886Z,15.07
2023-02-07T08:14:39.941Z,14.57
2023-02-07T08:17:07.038Z,14.48
2023-02-07T08:19:34.151Z,13.80
2023-02-07T08:22:01.284Z,13.35
2023-02-07T08:24:28.540Z,12.45
2023-02-07T08:26:55.589Z,12.02
2023-02-07T08:29:22.710Z,12.43
2023-02-07T08:31:49.859Z,13.70
2023-02-07T08:34:18.681Z,14.55
2023-02-07T08:36:45.821Z,13.60
2023-02-07T08:39:12.886Z,13.32
2023-02-07T08:41:39.917Z,12.88
2023-02-07T08:44:06.985Z,12.63
2023-02-07T08:46:34.079Z,12.52
2023-02-07T08:49:01.244Z,13.00
2023-02-07T08:51:28.874Z,12.07
2023-02-07T08:53:55.964Z,12.13
2023-02-07T08:56:23.117Z,11.45
2023-02-07T08:58:50.210Z,11.32
2023-02-07T09:01:17.376Z,10.43
2023-02-07T09:03:44.512Z,11.45
2023-02-07T09:06:11.883Z,11.02
2023-02-07T09:08:38.959Z,12.23
2023-02-07T09:11:09.529Z,11.82
2023-02-07T09:13:36.771Z,11.88
2023-02-07T09:16:03.825Z,11.77
2023-02-07T09:18:30.994Z,12.07
2023-02-07T09:20:58.096Z,11.57
2023-02-07T09:23:25.218Z,12.30
2023-02-07T09:25:52.660Z,12.70
2023-02-07T09:28:20.181Z,12.93
2023-02-07T09:30:47.686Z,11.35
2023-02-07T09:33:15.173Z,11.38
2023-02-07T09:35:43.678Z,10.90
2023-02-07T09:38:13.091Z,12.48
2023-02-07T09:40:40.502Z,11.18
2023-02-07T09:43:13.794Z,11.55
2023-02-07T09:45:41.844Z,10.65
2023-02-07T09:48:13.139Z,9.77
2023-02-07T09:50:42.599Z,9.20
2023-02-07T09:53:39.312Z,8.88
2023-02-07T09:56:06.415Z,9.07
2023-02-07T09:58:43.955Z,7.53
2023-02-07T10:01:15.646Z,8.02
2023-02-07T10:04:01.651Z,8.82
2023-02-07T10:06:28.805Z,7.55
2023-02-07T10:08:56.503Z,8.02
2023-02-07T10:11:26.342Z,8.02
2023-02-07T10:14:02.626Z,9.68
2023-02-07T10:16:29.890Z,9.18
2023-02-07T10:19:13.679Z,8.85
2023-02-07T10:21:59.197Z,8.73
2023-02-07T10:24:44.749Z,8.93
2023-02-07T10:27:16.522Z,8.30
2023-02-07T10:29:47.335Z,8.52
2023-02-07T10:32:20.531Z,8.77
2023-02-07T10:34:47.786Z,8.48
2023-02-07T10:37:19.413Z,7.97
2023-02-07T10:39:49.315Z,8.13
2023-02-07T10:42:16.768Z,7.47
2023-02-07T10:44:43.842Z,7.97
2023-02-07T10:47:14.360Z,7.90
2023-02-07T10:52:28.738Z,8.27
2023-02-07T10:54:59.692Z,8.10
2023-02-07T10:57:27.097Z,7.72
2023-02-07T11:00:03.329Z,7.43
2023-02-07T11:02:33.670Z,7.50
2023-02-07T11:07:29.393Z,7.78
2023-02-07T11:10:16.711Z,7.95
2023-02-07T11:12:47.810Z,7.68
2023-02-07T11:15:18.803Z,8.02
2023-02-07T11:17:52.249Z,7.93
2023-02-07T11:20:27.445Z,7.38
2023-02-07T11:22:54.772Z,7.05
2023-02-07T11:25:27.906Z,7.85
2023-02-07T11:27:55.036Z,7.63
2023-02-07T11:30:22.396Z,7.15
2023-02-07T11:32:59.984Z,7.50
2023-02-07T11:35:27.220Z,7.63
2023-02-07T11:38:03.554Z,7.70
2023-02-07T11:40:38.437Z,7.10
2023-02-07T11:43:05.453Z,7.50
2023-02-07T11:45:34.461Z,7.05
2023-02-07T11:48:01.633Z,7.05
2023-02-07T11:50:30.548Z,7.05
2023-02-07T11:52:58.632Z,7.07
2023-02-07T11:55:26.863Z,7.28
2023-02-07T11:57:57.504Z,6.45
2023-02-07T12:00:25.633Z,7.40
2023-02-07T12:03:02.726Z,7.60
2023-02-07T12:05:34.730Z,7.40
2023-02-07T12:08:03.680Z,6.85
2023-02-07T12:10:31.799Z,6.93
2023-02-07T12:13:08.777Z,7.38
2023-02-07T12:15:37.500Z,6.90
2023-02-07T12:18:05.577Z,7.30
2023-02-07T12:20:33.875Z,7.55
2023-02-07T12:23:34.594Z,7.85
2023-02-07T12:26:01.315Z,6.70
2023-02-07T12:28:37.728Z,7.05
2023-02-07T12:31:07.431Z,6.70
2023-02-07T12:33:47.178Z,7.20
2023-02-07T12:36:49.735Z,6.38
2023-02-07T12:39:16.793Z,6.88
2023-02-07T12:41:51.170Z,6.68
2023-02-07T12:44:25.620Z,6.97
2023-02-07T12:46:55.694Z,7.10
2023-02-07T12:49:33.570Z,7.25
2023-02-07T12:52:06.299Z,7.13
2023-02-07T12:54:35.304Z,6.60
2023-02-07T12:57:09.100Z,7.00
2023-02-07T12:59:40.325Z,6.28
2023-02-07T13:02:26.375Z,7.15
2023-02-07T13:05:16.847Z,6.40
2023-02-07T13:07:43.919Z,6.95
2023-02-07T13:10:31.689Z,6.50
2023-02-07T13:12:59.568Z,6.05
2023-02-07T13:15:41.838Z,6.45
2023-02-07T13:18:12.256Z,6.57
2023-02-07T13:20:39.333Z,6.13
2023-02-07T13:23:09.617Z,6.32
2023-02-07T13:25:38.133Z,5.88
2023-02-07T13:28:06.448Z,6.03
2023-02-07T13:30:33.546Z,6.32
2023-02-07T13:33:01.482Z,6.35
2023-02-07T13:35:28.660Z,6.20
2023-02-07T13:38:18.266Z,6.35
2023-02-07T13:40:55.402Z,5.82
2023-02-07T13:43:39.541Z,6.00
2023-02-07T13:46:27.124Z,6.28
2023-02-07T13:48:58.774Z,5.70
2023-02-07T13:51:44.072Z,5.97
2023-02-07T13:54:30.883Z,6.18
2023-02-07T13:57:17.695Z,6.00
2023-02-07T13:59:45.730Z,5.88
2023-02-07T14:02:22.480Z,5.97
2023-02-07T14:04:56.539Z,5.68
2023-02-07T14:07:29.935Z,5.75
2023-02-07T14:09:58.556Z,5.53
2023-02-07T14:12:29.325Z,5.60
2023-02-07T14:15:03.560Z,5.32
2023-02-07T14:17:30.631Z,5.32
2023-02-07T14:19:58.140Z,5.55
2023-02-07T14:22:32.246Z,5.88
2023-02-07T14:24:59.348Z,5.20
2023-02-07T14:27:32.966Z,5.53
2023-02-07T14:30:09.585Z,6.00
2023-02-07T14:32:40.663Z,5.68
2023-02-07T14:35:13.522Z,5.82
2023-02-07T14:37:56.552Z,6.10
2023-02-07T14:40:25.702Z,5.30
2023-02-07T14:43:02.854Z,5.40
2023-02-07T14:45:30.877Z,6.35
2023-02-07T14:47:58.007Z,5.90
2023-02-07T14:50:30.399Z,5.88
2023-02-07T14:53:00.435Z,5.53
2023-02-07T14:55:46.088Z,5.60
2023-02-07T14:58:14.413Z,5.43
2023-02-07T15:00:45.384Z,5.93
2023-02-07T15:03:19.235Z,6.20
2023-02-07T15:05:51.371Z,6.82
2023-02-07T15:08:22.654Z,6.53
2023-02-07T15:11:03.110Z,7.38
2023-02-07T15:13:31.164Z,6.78
2023-02-07T15:16:05.451Z,6.95
2023-02-07T15:18:36.881Z,6.10
2023-02-07T15:21:03.972Z,6.60
2023-02-07T15:23:31.338Z,6.55
2023-02-07T15:25:58.949Z,5.60
2023-02-07T15:28:27.945Z,7.50
2023-02-07T15:30:56.488Z,5.95
2023-02-07T15:33:24.019Z,6.40
2023-02-07T15:35:51.085Z,6.63
2023-02-07T15:38:20.329Z,6.90
2023-02-07T15:40:47.366Z,7.10
2023-02-07T15:43:22.977Z,6.55
2023-02-07T15:46:00.274Z,6.30
2023-02-07T15:48:27.444Z,7.30
2023-02-07T15:50:58.353Z,7.57
2023-02-07T15:53:26.527Z,8.25
2023-02-07T15:55:53.604Z,7.68
2023-02-07T15:58:25.025Z,6.85
2023-02-07T16:00:55.381Z,7.90
2023-02-07T16:03:23.171Z,8.98
2023-02-07T16:05:50.209Z,8.10
2023-02-07T16:08:33.995Z,8.00
2023-02-07T16:11:13.260Z,8.45
2023-02-07T16:13:47.402Z,8.88
2023-02-07T16:16:23.437Z,9.65
2023-02-07T16:18:50.611Z,8.43
2023-02-07T16:21:19.348Z,8.50
2023-02-07T16:23:49.944Z,9.40
2023-02-07T16:28:44.722Z,8.98
2023-02-07T16:31:11.826Z,8.05
2023-02-07T16:33:39.957Z,7.82
2023-02-07T16:36:07.311Z,7.82
2023-02-07T16:38:34.409Z,8.25
2023-02-07T16:41:01.424Z,7.93
2023-02-07T16:43:31.775Z,7.85
2023-02-07T16:45:58.778Z,8.77
2023-02-07T16:48:25.815Z,8.93
2023-02-07T16:50:52.872Z,10.15
2023-02-07T16:53:19.908Z,11.35
2023-02-07T16:55:46.894Z,10.73
2023-02-07T16:58:21.079Z,10.90
2023-02-07T17:00:48.087Z,9.07
2023-02-07T17:03:15.324Z,10.43
2023-02-07T17:05:42.351Z,8.82
2023-02-07T17:08:11.730Z,9.52
2023-02-07T17:10:39.015Z,8.93
2023-02-07T17:13:06.134Z,9.48
2023-02-07T17:15:33.152Z,10.30
2023-02-07T17:18:00.153Z,10.25
2023-02-07T17:20:28.516Z,9.57
2023-02-07T17:22:55.587Z,9.85
2023-02-07T17:25:23.201Z,8.15
2023-02-07T17:27:50.303Z,6.78
2023-02-07T17:30:18.669Z,7.72
2023-02-07T17:32:45.715Z,9.82
2023-02-07T17:35:12.838Z,10.05
2023-02-07T17:37:40.039Z,10.88
2023-02-07T17:40:25.394Z,10.20
2023-02-07T17:42:52.423Z,11.25
2023-02-07T17:45:19.410Z,13.18
2023-02-07T17:47:46.438Z,12.93
2023-02-07T17:50:17.837Z,13.05
2023-02-07T17:52:44.895Z,11.77
2023-02-07T17:55:11.885Z,11.32
2023-02-07T17:57:40.092Z,11.60
2023-02-07T18:00:07.709Z,10.85
2023-02-07T18:02:35.417Z,12.00
2023-02-07T18:05:02.524Z,11.38
2023-02-07T18:07:29.591Z,12.13
2023-02-07T18:09:57.736Z,11.60
2023-02-07T18:12:24.732Z,11.10
2023-02-07T18:14:52.488Z,11.05
2023-02-07T18:17:19.588Z,10.95
2023-02-07T18:19:46.616Z,11.90
2023-02-07T18:22:13.600Z,11.30
2023-02-07T18:24:40.646Z,11.80
2023-02-07T18:27:07.617Z,12.70
2023-02-07T18:29:34.614Z,12.90
2023-02-07T18:32:01.577Z,12.77
2023-02-07T18:34:28.570Z,12.75
2023-02-07T18:36:56.310Z,14.32
2023-02-07T18:39:23.333Z,15.30
2023-02-07T18:41:50.290Z,18.27
2023-02-07T18:44:17.290Z,18.10
2023-02-07T18:46:44.347Z,15.68
2023-02-07T18:49:12.420Z,16.13
2023-02-07T18:51:39.417Z,14.93
2023-02-07T18:54:06.619Z,16.45
2023-02-07T18:56:37.259Z,17.77
2023-02-07T18:59:04.992Z,17.60
2023-02-07T19:01:32.082Z,16.90
2023-02-07T19:04:01.363Z,18.63
2023-02-07T19:06:29.381Z,18.65
2023-02-07T19:08:56.444Z,18.98
2023-02-07T19:11:23.586Z,17.35
2023-02-07T19:13:50.597Z,14.52
2023-02-07T19:16:21.426Z,13.95
2023-02-07T19:18:48.576Z,14.85
2023-02-07T19:21:17.501Z,17.48
2023-02-07T19:23:44.582Z,18.63
2023-02-07T19:26:11.616Z,19.73
2023-02-07T19:28:38.774Z,20.48
2023-02-07T19:31:06.400Z,22.70
2023-02-07T19:33:33.445Z,23.45
2023-02-07T19:36:07.211Z,23.23
2023-02-07T19:38:34.551Z,23.65
2023-02-07T19:41:01.681Z,27.08
2023-02-07T19:43:28.739Z,27.45
2023-02-07T19:45:55.922Z,25.67
2023-02-07T19:48:23.169Z,22.42
2023-02-07T19:51:06.219Z,22.20
2023-02-07T19:53:33.241Z,22.20
2023-02-07T19:56:02.307Z,21.83
2023-02-07T19:58:32.648Z,20.95
2023-02-07T20:00:59.794Z,21.58
2023-02-07T20:03:26.957Z,21.15
2023-02-07T20:05:54.037Z,21.33
2023-02-07T20:08:21.230Z,19.48
2023-02-07T20:10:48.445Z,20.60
2023-02-07T20:13:15.885Z,21.17
2023-02-07T20:15:44.094Z,20.30
2023-02-07T20:18:11.217Z,18.08
2023-02-07T20:20:42.096Z,17.75
2023-02-07T20:23:09.472Z,17.17
2023-02-07T20:25:39.806Z,18.25
2023-02-07T20:28:07.190Z,17.98
2023-02-07T20:30:34.397Z,17.40
2023-02-07T20:33:01.450Z,18.77
2023-02-07T20:35:28.518Z,17.95
2023-02-07T20:37:55.536Z,17.15
2023-02-07T20:40:22.592Z,16.25
2023-02-07T20:42:49.591Z,15.55
2023-02-07T20:45:16.746Z,18.65
2023-02-07T20:47:44.196Z,16.80
2023-02-07T20:50:11.216Z,17.05
2023-02-07T20:52:38.201Z,17.17
2023-02-07T20:55:05.949Z,17.08
2023-02-07T20:57:32.975Z,18.15
2023-02-07T21:00:00.017Z,20.45
2023-02-07T21:02:27.155Z,22.98
2023-02-07T21:04:54.232Z,22.27
2023-02-07T21:07:21.282Z,25.60
2023-02-07T21:09:48.378Z,21.85
2023-02-07T21:12:15.517Z,23.08
2023-02-07T21:14:42.500Z,25.33
2023-02-07T21:17:09.523Z,26.83
2023-02-07T21:19:36.775Z,23.05
2023-02-07T21:22:03.863Z,30.90
2023-02-07T21:24:30.893Z,27.95
2023-02-07T21:26:57.980Z,27.33
2023-02-07T21:29:25.041Z,25.63
2023-02-07T21:31:52.293Z,26.17
2023-02-07T21:34:21.215Z,26.98
2023-02-07T21:36:48.656Z,28.08
2023-02-07T21:39:15.884Z,27.55
2023-02-07T21:41:43.412Z,39.78
2023-02-07T21:44:10.449Z,34.17
2023-02-07T21:46:39.245Z,31.80
2023-02-07T21:49:07.023Z,26.83
2023-02-07T21:51:34.643Z,27.33
2023-02-07T21:54:01.909Z,25.73
2023-02-07T21:56:29.849Z,24.35
2023-02-07T21:58:57.569Z,23.25
2023-02-07T22:01:24.829Z,22.00
2023-02-07T22:03:53.141Z,22.40
2023-02-07T22:06:20.246Z,22.60
2023-02-07T22:08:48.104Z,19.77
2023-02-07T22:11:15.158Z,20.23
2023-02-07T22:13:42.626Z,19.38
2023-02-07T22:16:10.234Z,16.95
2023-02-07T22:18:37.345Z,16.85
2023-02-07T22:21:04.994Z,15.90
2023-02-07T22:23:32.138Z,13.80
2023-02-07T22:25:59.180Z,12.68
2023-02-07T22:28:26.318Z,12.23
2023-02-07T22:30:53.386Z,13.15
2023-02-07T22:33:20.432Z,12.60
2023-02-07T22:35:47.418Z,13.10
2023-02-07T22:38:14.733Z,11.45
2023-02-07T22:40:42.788Z,12.18
2023-02-07T22:43:12.521Z,10.93
2023-02-07T22:45:42.387Z,10.73
2023-02-07T22:48:09.431Z,10.23
2023-02-07T22:50:36.582Z,11.15
2023-02-07T22:53:03.562Z,9.93
2023-02-07T22:55:30.599Z,11.55
2023-02-07T22:57:57.665Z,12.15
2023-02-07T23:00:25.078Z,12.60
2023-02-07T23:02:52.239Z,13.15
2023-02-07T23:05:19.286Z,10.98
2023-02-07T23:07:48.138Z,12.23
2023-02-07T23:10:15.151Z,11.70
2023-02-07T23:12:42.229Z,11.65
2023-02-07T23:15:09.567Z,12.63
2023-02-07T23:17:36.609Z,14.70
2023-02-07T23:20:03.670Z,13.68
2023-02-07T23:22:30.676Z,13.48
2023-02-07T23:24:57.712Z,12.18
2023-02-07T23:27:24.720Z,12.77
2023-02-07T23:29:51.718Z,11.50
2023-02-07T23:32:19.611Z,11.43
2023-02-07T23:34:46.629Z,10.73
2023-02-07T23:37:13.874Z,11.32
2023-02-07T23:39:40.856Z,10.88
2023-02-07T23:42:10.376Z,10.73
2023-02-07T23:44:37.700Z,11.67
2023-02-07T23:47:05.285Z,10.88
2023-02-07T23:49:32.377Z,11.15
2023-02-07T23:51:59.399Z,12.95
2023-02-07T23:54:26.524Z,12.68
2023-02-07T23:56:53.577Z,13.68
2023-02-07T23:59:20.586Z,12.10
